Jawor — C6YH8 — position and weather

sailwx.info

Track history (hours):
 
Tides and Currents Weather Stations Pressure Air Temp Water Temp Dewpoint Dewpoint Depression Visibility Wind Speed Wind Dir Waves Ship Positions

Jawor

Last reported at 2015-May-23 03:28 UTC. Time now 2015-May-29 16:26 UTC.
Position N 29°47' E 122°04'.

Length 229 m; draft 6.9 m.

Type: Cargo ship. MMSI: 311034100.

Date/timePositionNaut miles runAvg speedWind from/ knotsBaromVisibWave heightAir tempDewpointWater temp
2015-May-23 03:28N 29°47' E 122°04'0 0.0
2015-May-23 02:28N 29°47' E 122°04'  
2015-May-14 10:33N 29°47' E 122°04'1 0.9
2015-May-14 09:30N 29°47' E 122°03'0 0.1
2015-May-14 07:30N 29°47' E 122°03'0 0.1
2015-May-14 06:21N 29°46' E 122°03'0 0.0
2015-May-14 05:33N 29°46' E 122°03'0 0.3
2015-May-14 04:33N 29°47' E 122°03'9 9.5
2015-May-14 03:33N 29°51' E 122°12'9 8.7
2015-May-14 02:32N 29°45' E 122°20'2 0.5
2015-May-13 22:33N 29°45' E 122°22'0 0.0
2015-May-13 20:33N 29°45' E 122°22'1 0.7
2015-May-13 19:33N 29°45' E 122°23'8 8.1
2015-May-13 18:33N 29°39' E 122°29'1111.4
2015-May-13 17:33N 29°29' E 122°24'1312.1
2015-May-13 16:27N 29°15' E 122°23'1112.5
2015-May-13 15:33N 29°04' E 122°23'1512.9
2015-May-13 14:23N 28°49' E 122°23'1113.0
2015-May-13 13:33N 28°38' E 122°22'1711.8
2015-May-13 12:07N 28°21' E 122°22'5 9.6
2015-May-13 11:33N 28°16' E 122°21'  
Track history (hours):
 
Tides and Currents Weather Stations Pressure Air Temp Water Temp Dewpoint Dewpoint Depression Visibility Wind Speed Wind Dir Waves Ship Positions

Jawor

Last reported at 2015-May-23 03:28 UTC. Time now 2015-May-29 16:26 UTC.
Position N 29°47' E 122°04'.

Length 229 m; draft 6.9 m.

Type: Cargo ship. MMSI: 311034100.

Date/timePositionNaut miles runAvg speedWind from/ knotsBaromVisibWave heightAir tempDewpointWater temp
2015-May-23 03:28N 29°47' E 122°04'0 0.0
2015-May-23 02:28N 29°47' E 122°04'  
2015-May-14 10:33N 29°47' E 122°04'1 0.9
2015-May-14 09:30N 29°47' E 122°03'0 0.1
2015-May-14 07:30N 29°47' E 122°03'0 0.1
2015-May-14 06:21N 29°46' E 122°03'0 0.0
2015-May-14 05:33N 29°46' E 122°03'0 0.3
2015-May-14 04:33N 29°47' E 122°03'9 9.5
2015-May-14 03:33N 29°51' E 122°12'9 8.7
2015-May-14 02:32N 29°45' E 122°20'2 0.5
2015-May-13 22:33N 29°45' E 122°22'0 0.0
2015-May-13 20:33N 29°45' E 122°22'1 0.7
2015-May-13 19:33N 29°45' E 122°23'8 8.1
2015-May-13 18:33N 29°39' E 122°29'1111.4
2015-May-13 17:33N 29°29' E 122°24'1312.1
2015-May-13 16:27N 29°15' E 122°23'1112.5
2015-May-13 15:33N 29°04' E 122°23'1512.9
2015-May-13 14:23N 28°49' E 122°23'1113.0
2015-May-13 13:33N 28°38' E 122°22'1711.8
2015-May-13 12:07N 28°21' E 122°22'5 9.6
2015-May-13 11:33N 28°16' E 122°21'  

Dump ship's entire track history